createdAt,value
2023-03-20T08:01:48.370Z,100.00
2023-03-20T08:04:19.500Z,100.00
2023-03-20T08:06:47.097Z,100.00
2023-03-20T08:09:14.695Z,100.00
2023-03-20T08:11:42.547Z,100.00
2023-03-20T08:14:09.963Z,100.00
2023-03-20T08:16:37.745Z,100.00
2023-03-20T08:19:06.272Z,100.00
2023-03-20T08:21:33.912Z,100.00
2023-03-20T08:24:01.492Z,100.00
2023-03-20T08:26:28.862Z,100.00
2023-03-20T08:28:56.266Z,100.00
2023-03-20T08:31:23.664Z,100.00
2023-03-20T08:33:52.063Z,100.00
2023-03-20T08:36:20.869Z,100.00
2023-03-20T08:38:50.287Z,100.00
2023-03-20T08:41:19.059Z,100.00
2023-03-20T08:43:47.699Z,100.00
2023-03-20T08:46:15.193Z,100.00
2023-03-20T08:48:42.632Z,100.00
2023-03-20T08:51:10.204Z,100.00
2023-03-20T08:53:37.557Z,100.00
2023-03-20T08:56:05.856Z,100.00
2023-03-20T08:58:33.345Z,100.00
2023-03-20T09:01:10.441Z,100.00
2023-03-20T09:03:38.133Z,100.00
2023-03-20T09:06:09.422Z,100.00
2023-03-20T09:08:36.909Z,100.00
2023-03-20T09:11:06.131Z,100.00
2023-03-20T09:13:33.921Z,100.00
2023-03-20T09:16:01.363Z,100.00
2023-03-20T09:18:28.869Z,100.00
2023-03-20T09:20:56.779Z,100.00
2023-03-20T09:23:24.234Z,100.00
2023-03-20T09:25:51.694Z,100.00
2023-03-20T09:28:19.634Z,100.00
2023-03-20T09:30:47.047Z,100.00
2023-03-20T09:33:15.005Z,100.00
2023-03-20T09:35:43.768Z,100.00
2023-03-20T09:38:12.385Z,100.00
2023-03-20T09:41:02.965Z,100.00
2023-03-20T09:44:20.984Z,100.00
2023-03-20T09:47:44.190Z,100.00
2023-03-20T09:50:54.942Z,100.00
2023-03-20T09:53:41.062Z,100.00
2023-03-20T09:56:25.344Z,100.00
2023-03-20T09:59:06.426Z,100.00
2023-03-20T10:01:55.265Z,100.00
2023-03-20T10:04:28.626Z,100.00
2023-03-20T10:06:56.971Z,100.00
2023-03-20T10:09:32.676Z,100.00
2023-03-20T10:12:49.677Z,100.00
2023-03-20T10:16:01.861Z,100.00
2023-03-20T10:18:32.803Z,100.00
2023-03-20T10:21:31.871Z,97.14
2023-03-20T10:24:15.833Z,98.54
2023-03-20T10:26:43.642Z,100.00
2023-03-20T10:29:53.003Z,100.00
2023-03-20T10:32:36.228Z,99.26
2023-03-20T10:36:04.724Z,100.00
2023-03-20T10:39:33.915Z,100.00
2023-03-20T10:42:10.422Z,96.19
2023-03-20T10:44:53.335Z,93.79
2023-03-20T10:47:25.080Z,93.35
2023-03-20T10:50:06.359Z,95.84
2023-03-20T10:52:40.554Z,95.58
2023-03-20T10:55:27.169Z,99.00
2023-03-20T10:58:26.642Z,100.00
2023-03-20T11:00:57.200Z,97.74
2023-03-20T11:03:29.631Z,99.35
2023-03-20T11:06:23.023Z,97.93
2023-03-20T11:08:53.333Z,100.00
2023-03-20T11:11:30.800Z,98.94
2023-03-20T11:14:09.333Z,99.46
2023-03-20T11:16:38.922Z,95.78
2023-03-20T11:19:11.657Z,97.57
2023-03-20T11:22:23.150Z,96.90
2023-03-20T11:25:02.578Z,100.00
2023-03-20T11:27:36.874Z,100.00
2023-03-20T11:30:08.399Z,97.04
2023-03-20T11:32:47.155Z,85.71
2023-03-20T11:35:26.335Z,85.96
2023-03-20T11:38:14.926Z,87.99
2023-03-20T11:40:42.321Z,81.84
2023-03-20T11:43:27.179Z,81.12
2023-03-20T11:46:01.430Z,78.90
2023-03-20T11:48:46.967Z,80.82
2023-03-20T11:51:21.763Z,82.02
2023-03-20T11:53:48.955Z,81.52
2023-03-20T11:56:26.636Z,81.77
2023-03-20T11:59:14.942Z,74.23
2023-03-20T12:01:53.579Z,72.83
2023-03-20T12:04:41.978Z,77.03
2023-03-20T12:07:35.103Z,71.29
2023-03-20T12:10:12.833Z,66.59
2023-03-20T12:12:54.841Z,66.87
2023-03-20T12:15:42.010Z,66.45
2023-03-20T12:19:01.641Z,61.51
2023-03-20T12:22:21.635Z,58.77
2023-03-20T12:25:52.804Z,58.94
2023-03-20T12:28:46.830Z,58.37
2023-03-20T12:32:03.850Z,57.38
2023-03-20T12:34:44.943Z,57.81
2023-03-20T12:37:13.685Z,56.90
2023-03-20T12:39:59.309Z,57.43
2023-03-20T12:43:02.700Z,59.17
2023-03-20T12:45:48.579Z,58.91
2023-03-20T12:48:38.141Z,59.38
2023-03-20T12:51:41.763Z,59.48
2023-03-20T12:55:21.160Z,61.42
2023-03-20T12:58:41.079Z,58.48
2023-03-20T13:01:27.639Z,59.86
2023-03-20T13:04:45.224Z,58.50
2023-03-20T13:07:25.951Z,58.90
2023-03-20T13:10:24.485Z,58.58
2023-03-20T13:13:13.026Z,59.48
2023-03-20T13:16:20.743Z,57.11
2023-03-20T13:19:49.248Z,57.36
2023-03-20T13:23:08.536Z,57.74
2023-03-20T13:25:53.683Z,56.36
2023-03-20T13:28:54.525Z,55.12
2023-03-20T13:32:02.224Z,53.50
2023-03-20T13:35:14.959Z,54.10
2023-03-20T13:38:07.338Z,51.76
2023-03-20T13:40:44.186Z,51.78
2023-03-20T13:43:49.893Z,50.36
2023-03-20T13:46:26.782Z,50.67
2023-03-20T13:48:58.785Z,50.72
2023-03-20T13:52:01.865Z,49.71
2023-03-20T13:55:11.482Z,49.28
2023-03-20T13:57:57.043Z,48.21
2023-03-20T14:00:46.404Z,48.21
2023-03-20T14:03:37.794Z,47.40
2023-03-20T14:06:47.405Z,47.20
2023-03-20T14:09:38.956Z,47.37
2023-03-20T14:12:13.458Z,47.37
2023-03-20T14:14:55.130Z,47.15
2023-03-20T14:17:30.876Z,48.48
2023-03-20T14:20:10.628Z,48.01
2023-03-20T14:22:44.573Z,49.84
2023-03-20T14:25:21.847Z,48.33
2023-03-20T14:28:27.256Z,49.82
2023-03-20T14:31:34.287Z,50.40
2023-03-20T14:34:12.172Z,49.43
2023-03-20T14:37:02.035Z,51.08
2023-03-20T14:40:15.622Z,51.36
2023-03-20T14:43:03.260Z,50.12
2023-03-20T14:46:03.709Z,49.84
2023-03-20T14:48:47.626Z,48.30
2023-03-20T14:51:41.416Z,47.69
2023-03-20T14:54:31.111Z,47.62
2023-03-20T14:57:26.559Z,47.03
2023-03-20T14:59:55.355Z,47.45
2023-03-20T15:02:36.412Z,45.50
2023-03-20T15:05:04.766Z,46.46
2023-03-20T15:07:39.559Z,46.29
2023-03-20T15:10:08.137Z,45.99
2023-03-20T15:12:37.583Z,46.05
2023-03-20T15:15:27.859Z,45.96
2023-03-20T15:17:55.316Z,44.35
2023-03-20T15:20:31.867Z,44.73
2023-03-20T15:23:02.554Z,45.39
2023-03-20T15:25:47.522Z,46.75
2023-03-20T15:28:26.100Z,46.54
2023-03-20T15:30:59.194Z,46.20
2023-03-20T15:33:45.787Z,46.45
2023-03-20T15:36:28.516Z,47.44
2023-03-20T15:39:27.246Z,46.56
2023-03-20T15:42:09.698Z,46.99
2023-03-20T15:44:41.747Z,47.31
2023-03-20T15:47:22.906Z,47.95
2023-03-20T15:50:00.719Z,48.17
2023-03-20T15:52:42.526Z,48.57
2023-03-20T15:55:20.008Z,48.31
2023-03-20T15:57:50.302Z,48.42
2023-03-20T16:00:34.209Z,49.02
2023-03-20T16:03:07.774Z,48.87
2023-03-20T16:05:36.184Z,49.17
2023-03-20T16:08:30.952Z,48.98
2023-03-20T16:11:19.084Z,48.27
2023-03-20T16:13:49.924Z,48.70
2023-03-20T16:16:24.613Z,48.80
2023-03-20T16:18:52.440Z,47.68
2023-03-20T16:21:32.136Z,48.73
2023-03-20T16:24:01.485Z,48.13
2023-03-20T16:26:29.217Z,48.88
2023-03-20T16:29:02.703Z,48.76
2023-03-20T16:31:35.228Z,49.73
2023-03-20T16:34:18.065Z,49.79
2023-03-20T16:36:56.454Z,50.78
2023-03-20T16:39:30.730Z,48.46
2023-03-20T16:42:23.995Z,49.77
2023-03-20T16:44:58.859Z,49.72
2023-03-20T16:47:38.416Z,49.94
2023-03-20T16:50:22.790Z,49.99
2023-03-20T16:52:58.680Z,52.16
2023-03-20T16:55:35.140Z,52.09
2023-03-20T16:58:07.352Z,51.04
2023-03-20T17:01:04.500Z,52.21
2023-03-20T17:03:49.476Z,53.05
2023-03-20T17:06:20.711Z,52.88
2023-03-20T17:09:13.181Z,52.55
2023-03-20T17:11:50.327Z,53.33
2023-03-20T17:14:20.792Z,53.68
2023-03-20T17:16:48.338Z,53.42
2023-03-20T17:19:19.352Z,54.51
2023-03-20T17:21:47.784Z,54.21
2023-03-20T17:24:17.417Z,53.85
2023-03-20T17:26:57.195Z,54.27
2023-03-20T17:29:24.621Z,54.34
2023-03-20T17:31:52.690Z,55.71
2023-03-20T17:34:20.110Z,55.90
2023-03-20T17:36:48.959Z,55.61
2023-03-20T17:39:21.097Z,54.72
2023-03-20T17:41:48.625Z,54.72
2023-03-20T17:44:16.075Z,56.14
2023-03-20T17:46:57.277Z,55.57
2023-03-20T17:49:27.521Z,55.62
2023-03-20T17:51:56.187Z,55.58
2023-03-20T17:54:23.687Z,56.65
2023-03-20T17:56:51.133Z,57.16
2023-03-20T17:59:18.493Z,56.80
2023-03-20T18:01:46.041Z,56.93
2023-03-20T18:04:13.530Z,57.29
2023-03-20T18:06:40.996Z,57.49
2023-03-20T18:09:13.338Z,57.65
2023-03-20T18:11:41.172Z,57.06
2023-03-20T18:14:08.688Z,57.62
2023-03-20T18:16:36.259Z,57.32
2023-03-20T18:19:03.820Z,57.37
2023-03-20T18:21:31.232Z,57.09
2023-03-20T18:23:58.651Z,57.64
2023-03-20T18:26:27.652Z,57.71
2023-03-20T18:28:56.233Z,57.56
2023-03-20T18:31:23.854Z,58.29
2023-03-20T18:33:53.405Z,58.09
2023-03-20T18:36:24.462Z,58.63
2023-03-20T18:38:52.581Z,57.95
2023-03-20T18:41:20.917Z,58.23
2023-03-20T18:43:48.674Z,57.79
2023-03-20T18:46:26.021Z,57.71
2023-03-20T18:48:54.446Z,57.98
2023-03-20T18:51:21.926Z,58.90
2023-03-20T18:53:49.500Z,59.33
2023-03-20T18:56:25.900Z,60.60
2023-03-20T18:58:54.174Z,62.34
2023-03-20T19:01:22.080Z,63.34
2023-03-20T19:03:50.088Z,64.72
2023-03-20T19:06:23.145Z,65.14
2023-03-20T19:08:52.439Z,64.97
2023-03-20T19:11:21.733Z,65.09
2023-03-20T19:13:53.624Z,65.73
2023-03-20T19:16:26.803Z,65.82
2023-03-20T19:18:58.993Z,66.36
2023-03-20T19:21:27.117Z,68.17
2023-03-20T19:24:03.557Z,69.63
2023-03-20T19:26:34.764Z,71.08
2023-03-20T19:29:09.195Z,72.52
2023-03-20T19:31:37.152Z,72.25
2023-03-20T19:34:05.391Z,73.12
2023-03-20T19:36:37.716Z,72.61
2023-03-20T19:39:12.522Z,71.64
2023-03-20T19:41:39.848Z,72.31
2023-03-20T19:44:07.395Z,72.16
2023-03-20T19:46:42.729Z,71.42
2023-03-20T19:49:30.194Z,70.28
2023-03-20T19:51:58.015Z,69.93
2023-03-20T19:54:25.567Z,69.66
2023-03-20T19:56:52.945Z,68.63
2023-03-20T19:59:21.159Z,68.36
2023-03-20T20:01:48.853Z,67.91
2023-03-20T20:04:16.470Z,67.37
2023-03-20T20:06:47.129Z,68.52
2023-03-20T20:09:15.711Z,68.57
2023-03-20T20:11:44.086Z,69.61
2023-03-20T20:14:14.593Z,70.88
2023-03-20T20:16:43.341Z,73.14
2023-03-20T20:19:11.751Z,72.43
2023-03-20T20:22:17.251Z,72.93
2023-03-20T20:24:27.469Z,75.38
2023-03-20T20:27:15.381Z,76.49
2023-03-20T20:29:50.942Z,77.00
2023-03-20T20:32:23.718Z,79.59
2023-03-20T20:38:27.035Z,82.50
2023-03-20T20:40:30.973Z,80.69
2023-03-20T20:43:01.659Z,79.66
2023-03-20T20:45:32.044Z,81.58
2023-03-20T20:48:01.939Z,81.08
2023-03-20T20:50:33.465Z,82.12
2023-03-20T20:53:00.884Z,84.07
2023-03-20T20:55:28.385Z,88.89
2023-03-20T20:57:56.149Z,92.49
2023-03-20T21:00:41.209Z,94.66
2023-03-20T21:03:13.346Z,93.92
2023-03-20T21:05:42.961Z,97.55
2023-03-20T21:08:12.043Z,98.02
2023-03-20T21:10:40.103Z,97.38
2023-03-20T21:13:08.654Z,94.49
2023-03-20T21:15:36.722Z,92.89
2023-03-20T21:18:04.888Z,92.88
2023-03-20T21:20:32.875Z,93.78
2023-03-20T21:23:00.935Z,94.54
2023-03-20T21:25:40.520Z,95.62
2023-03-20T21:28:26.518Z,94.12
2023-03-20T21:31:20.888Z,92.46
2023-03-20T21:33:41.816Z,92.51
2023-03-20T21:36:10.067Z,92.33
2023-03-20T21:39:05.899Z,95.07
2023-03-20T21:41:24.948Z,94.15
2023-03-20T21:43:52.274Z,94.94
2023-03-20T21:49:54.513Z,95.49
2023-03-20T21:55:21.635Z,94.81
2023-03-20T22:03:22.362Z,96.03
2023-03-20T22:06:50.592Z,95.93
2023-03-20T22:12:22.967Z,97.85
2023-03-20T22:15:11.991Z,98.53
2023-03-20T22:21:03.963Z,98.37
2023-03-20T22:26:28.520Z,98.75
2023-03-20T22:31:55.389Z,99.52
2023-03-20T22:40:26.357Z,100.00
2023-03-20T22:45:15.073Z,100.00
2023-03-20T22:47:42.831Z,100.00
2023-03-20T22:50:10.980Z,100.00
2023-03-20T22:52:48.546Z,100.00
2023-03-20T22:55:17.821Z,100.00
2023-03-20T22:57:59.957Z,100.00
2023-03-20T23:00:33.541Z,100.00
2023-03-20T23:03:33.371Z,100.00
2023-03-20T23:05:50.516Z,100.00
2023-03-20T23:08:18.241Z,100.00
2023-03-20T23:10:50.764Z,100.00
